TSJ weather

Tsushima Airport
Tsushima, Nagasaki Prefecture, Japan

Public forecast

Using degrees Celsius for public forecast. Weather courtesy of forecast.io.

Current aviation weather report (METAR) for Tsushima Airport

Report is more than 6 hours old.

Retrieved 2020/07/10 11:00 UTC (10 hours ago):

RJDT 101100Z VRB02KT 9999 FEW005 BKN007 24/23 Q1001

Closest aviation forecast (TAF) to Tsushima Airport

Closest forecast is Gimhae International Airport, 57.1 nm (105.8 km) NNW. Retrieved 2020/07/10 18:00 UTC (3 hours ago):

TAF RKPK 101700Z 1018/1124 20006KT 9999 SCT015 SCT030 BKN200 TN21/1020Z TX28/1105Z BECMG 1023/1024 06006KT BECMG 1102/1103 11010KT